sensor_id;sensor_type;location;lat;lon;timestamp;P1;durP1;ratioP1;P2;durP2;ratioP2
71771;SDS011;59606;52.138;5.424;2023-06-14T00:02:20;5.43;;;2.53;;
71771;SDS011;59606;52.138;5.424;2023-06-14T00:04:47;6.03;;;2.25;;
71771;SDS011;59606;52.138;5.424;2023-06-14T00:07:14;10.48;;;2.42;;
71771;SDS011;59606;52.138;5.424;2023-06-14T00:09:43;7.53;;;2.50;;
71771;SDS011;59606;52.138;5.424;2023-06-14T00:12:09;4.82;;;2.38;;
71771;SDS011;59606;52.138;5.424;2023-06-14T00:14:36;10.53;;;2.30;;
71771;SDS011;59606;52.138;5.424;2023-06-14T00:17:02;6.80;;;2.15;;
71771;SDS011;59606;52.138;5.424;2023-06-14T00:19:29;6.10;;;2.30;;
71771;SDS011;59606;52.138;5.424;2023-06-14T00:21:59;12.18;;;2.60;;
71771;SDS011;59606;52.138;5.424;2023-06-14T00:24:25;6.53;;;2.40;;
71771;SDS011;59606;52.138;5.424;2023-06-14T00:26:52;5.47;;;1.87;;
71771;SDS011;59606;52.138;5.424;2023-06-14T00:29:18;6.80;;;2.20;;
71771;SDS011;59606;52.138;5.424;2023-06-14T00:31:45;8.63;;;2.97;;
71771;SDS011;59606;52.138;5.424;2023-06-14T00:34:12;6.05;;;2.30;;
71771;SDS011;59606;52.138;5.424;2023-06-14T00:36:38;5.07;;;1.90;;
71771;SDS011;59606;52.138;5.424;2023-06-14T00:39:05;5.30;;;2.03;;
71771;SDS011;59606;52.138;5.424;2023-06-14T00:41:31;21.55;;;10.23;;
71771;SDS011;59606;52.138;5.424;2023-06-14T00:43:58;9.13;;;4.72;;
71771;SDS011;59606;52.138;5.424;2023-06-14T00:46:26;6.80;;;2.83;;
71771;SDS011;59606;52.138;5.424;2023-06-14T00:48:52;4.43;;;2.40;;
71771;SDS011;59606;52.138;5.424;2023-06-14T00:51:21;6.00;;;2.30;;
71771;SDS011;59606;52.138;5.424;2023-06-14T00:53:48;5.03;;;2.15;;
71771;SDS011;59606;52.138;5.424;2023-06-14T00:56:15;9.48;;;2.40;;
71771;SDS011;59606;52.138;5.424;2023-06-14T00:58:42;5.85;;;2.20;;
71771;SDS011;59606;52.138;5.424;2023-06-14T01:01:09;20.92;;;3.65;;
71771;SDS011;59606;52.138;5.424;2023-06-14T01:03:36;4.63;;;2.13;;
71771;SDS011;59606;52.138;5.424;2023-06-14T01:06:05;5.13;;;2.25;;
71771;SDS011;59606;52.138;5.424;2023-06-14T01:08:44;6.53;;;2.70;;
71771;SDS011;59606;52.138;5.424;2023-06-14T01:11:18;6.78;;;2.35;;
71771;SDS011;59606;52.138;5.424;2023-06-14T01:13:51;4.57;;;2.20;;
71771;SDS011;59606;52.138;5.424;2023-06-14T01:16:18;6.07;;;2.10;;
71771;SDS011;59606;52.138;5.424;2023-06-14T01:18:46;5.80;;;2.53;;
71771;SDS011;59606;52.138;5.424;2023-06-14T01:21:22;10.48;;;3.08;;
71771;SDS011;59606;52.138;5.424;2023-06-14T01:23:52;5.50;;;1.85;;
71771;SDS011;59606;52.138;5.424;2023-06-14T01:26:23;7.20;;;2.17;;
71771;SDS011;59606;52.138;5.424;2023-06-14T01:28:49;5.53;;;1.83;;
71771;SDS011;59606;52.138;5.424;2023-06-14T01:31:19;6.43;;;1.88;;
71771;SDS011;59606;52.138;5.424;2023-06-14T01:33:48;6.05;;;2.10;;
71771;SDS011;59606;52.138;5.424;2023-06-14T01:36:18;5.15;;;1.85;;
71771;SDS011;59606;52.138;5.424;2023-06-14T01:38:46;5.65;;;2.17;;
71771;SDS011;59606;52.138;5.424;2023-06-14T01:41:16;6.77;;;2.37;;
71771;SDS011;59606;52.138;5.424;2023-06-14T01:43:45;6.38;;;1.90;;
71771;SDS011;59606;52.138;5.424;2023-06-14T01:46:13;5.07;;;2.30;;
71771;SDS011;59606;52.138;5.424;2023-06-14T01:48:40;3.42;;;1.80;;
71771;SDS011;59606;52.138;5.424;2023-06-14T01:51:07;5.57;;;2.15;;
71771;SDS011;59606;52.138;5.424;2023-06-14T01:53:34;6.30;;;2.30;;
71771;SDS011;59606;52.138;5.424;2023-06-14T01:56:00;4.63;;;2.00;;
71771;SDS011;59606;52.138;5.424;2023-06-14T01:58:27;9.43;;;2.80;;
71771;SDS011;59606;52.138;5.424;2023-06-14T02:00:54;7.65;;;3.10;;
71771;SDS011;59606;52.138;5.424;2023-06-14T02:03:24;5.97;;;2.05;;
71771;SDS011;59606;52.138;5.424;2023-06-14T02:05:51;5.83;;;2.10;;
71771;SDS011;59606;52.138;5.424;2023-06-14T02:08:18;6.88;;;2.30;;
71771;SDS011;59606;52.138;5.424;2023-06-14T02:10:44;6.28;;;2.70;;
71771;SDS011;59606;52.138;5.424;2023-06-14T02:13:11;5.50;;;2.10;;
71771;SDS011;59606;52.138;5.424;2023-06-14T02:15:38;7.68;;;2.92;;
71771;SDS011;59606;52.138;5.424;2023-06-14T02:18:04;15.03;;;2.33;;
71771;SDS011;59606;52.138;5.424;2023-06-14T02:20:31;6.82;;;1.98;;
71771;SDS011;59606;52.138;5.424;2023-06-14T02:22:58;10.23;;;2.30;;
71771;SDS011;59606;52.138;5.424;2023-06-14T02:25:24;5.88;;;2.30;;
71771;SDS011;59606;52.138;5.424;2023-06-14T02:27:53;5.85;;;2.13;;
71771;SDS011;59606;52.138;5.424;2023-06-14T02:30:21;6.87;;;2.43;;
71771;SDS011;59606;52.138;5.424;2023-06-14T02:32:47;6.18;;;1.92;;
71771;SDS011;59606;52.138;5.424;2023-06-14T02:35:14;7.75;;;1.95;;
71771;SDS011;59606;52.138;5.424;2023-06-14T02:37:41;6.28;;;2.05;;
71771;SDS011;59606;52.138;5.424;2023-06-14T02:40:09;5.38;;;1.90;;
71771;SDS011;59606;52.138;5.424;2023-06-14T02:42:35;6.83;;;2.03;;
71771;SDS011;59606;52.138;5.424;2023-06-14T02:45:02;7.65;;;2.03;;
71771;SDS011;59606;52.138;5.424;2023-06-14T02:47:30;5.35;;;2.03;;
71771;SDS011;59606;52.138;5.424;2023-06-14T02:49:56;5.43;;;2.30;;
71771;SDS011;59606;52.138;5.424;2023-06-14T02:52:23;4.82;;;2.53;;
71771;SDS011;59606;52.138;5.424;2023-06-14T02:54:51;4.57;;;2.13;;
71771;SDS011;59606;52.138;5.424;2023-06-14T02:57:18;4.40;;;2.20;;
71771;SDS011;59606;52.138;5.424;2023-06-14T02:59:44;6.20;;;2.03;;
71771;SDS011;59606;52.138;5.424;2023-06-14T03:02:11;7.53;;;2.10;;
71771;SDS011;59606;52.138;5.424;2023-06-14T03:04:37;5.05;;;2.38;;
71771;SDS011;59606;52.138;5.424;2023-06-14T03:07:04;4.87;;;2.40;;
71771;SDS011;59606;52.138;5.424;2023-06-14T03:09:38;10.65;;;2.15;;
71771;SDS011;59606;52.138;5.424;2023-06-14T03:12:05;5.32;;;2.03;;
71771;SDS011;59606;52.138;5.424;2023-06-14T03:14:33;10.85;;;2.20;;
71771;SDS011;59606;52.138;5.424;2023-06-14T03:17:01;6.43;;;2.45;;
71771;SDS011;59606;52.138;5.424;2023-06-14T03:19:28;6.80;;;1.93;;
71771;SDS011;59606;52.138;5.424;2023-06-14T03:21:55;4.50;;;2.13;;
71771;SDS011;59606;52.138;5.424;2023-06-14T03:24:24;2.63;;;1.70;;
71771;SDS011;59606;52.138;5.424;2023-06-14T03:26:51;9.90;;;2.30;;
71771;SDS011;59606;52.138;5.424;2023-06-14T03:29:17;4.93;;;2.13;;
71771;SDS011;59606;52.138;5.424;2023-06-14T03:32:00;5.60;;;1.87;;
71771;SDS011;59606;52.138;5.424;2023-06-14T03:34:28;3.83;;;2.08;;
71771;SDS011;59606;52.138;5.424;2023-06-14T03:36:55;4.03;;;2.17;;
71771;SDS011;59606;52.138;5.424;2023-06-14T03:39:21;5.15;;;2.47;;
71771;SDS011;59606;52.138;5.424;2023-06-14T03:41:48;3.75;;;1.80;;
71771;SDS011;59606;52.138;5.424;2023-06-14T03:44:15;4.87;;;2.20;;
71771;SDS011;59606;52.138;5.424;2023-06-14T03:46:44;6.22;;;1.95;;
71771;SDS011;59606;52.138;5.424;2023-06-14T03:49:12;4.05;;;2.10;;
71771;SDS011;59606;52.138;5.424;2023-06-14T03:51:39;6.10;;;2.30;;
71771;SDS011;59606;52.138;5.424;2023-06-14T03:54:06;4.75;;;2.47;;
71771;SDS011;59606;52.138;5.424;2023-06-14T03:56:53;10.10;;;2.40;;
71771;SDS011;59606;52.138;5.424;2023-06-14T03:59:19;5.15;;;2.10;;
71771;SDS011;59606;52.138;5.424;2023-06-14T04:01:47;8.07;;;2.33;;
71771;SDS011;59606;52.138;5.424;2023-06-14T04:04:15;6.40;;;2.05;;
71771;SDS011;59606;52.138;5.424;2023-06-14T04:06:44;4.75;;;2.03;;
71771;SDS011;59606;52.138;5.424;2023-06-14T04:09:14;6.47;;;2.10;;
71771;SDS011;59606;52.138;5.424;2023-06-14T04:11:41;4.97;;;2.30;;
71771;SDS011;59606;52.138;5.424;2023-06-14T04:14:07;5.55;;;2.10;;
71771;SDS011;59606;52.138;5.424;2023-06-14T04:16:34;6.60;;;2.80;;
71771;SDS011;59606;52.138;5.424;2023-06-14T04:19:01;6.97;;;2.35;;
71771;SDS011;59606;52.138;5.424;2023-06-14T04:21:27;4.20;;;2.13;;
71771;SDS011;59606;52.138;5.424;2023-06-14T04:23:55;6.38;;;2.17;;
71771;SDS011;59606;52.138;5.424;2023-06-14T04:26:22;6.10;;;2.22;;
71771;SDS011;59606;52.138;5.424;2023-06-14T04:28:52;4.65;;;2.28;;
71771;SDS011;59606;52.138;5.424;2023-06-14T04:31:19;6.03;;;2.22;;
71771;SDS011;59606;52.138;5.424;2023-06-14T04:33:47;4.63;;;2.40;;
71771;SDS011;59606;52.138;5.424;2023-06-14T04:36:17;4.50;;;2.08;;
71771;SDS011;59606;52.138;5.424;2023-06-14T04:38:44;7.10;;;3.03;;
71771;SDS011;59606;52.138;5.424;2023-06-14T04:41:15;4.25;;;2.20;;
71771;SDS011;59606;52.138;5.424;2023-06-14T04:43:41;7.78;;;2.13;;
71771;SDS011;59606;52.138;5.424;2023-06-14T04:46:09;4.00;;;2.13;;
71771;SDS011;59606;52.138;5.424;2023-06-14T04:48:40;6.78;;;2.35;;
71771;SDS011;59606;52.138;5.424;2023-06-14T04:51:09;5.75;;;1.98;;
71771;SDS011;59606;52.138;5.424;2023-06-14T04:53:35;4.95;;;2.42;;
71771;SDS011;59606;52.138;5.424;2023-06-14T04:56:03;10.52;;;2.72;;
71771;SDS011;59606;52.138;5.424;2023-06-14T04:58:30;10.27;;;2.47;;
71771;SDS011;59606;52.138;5.424;2023-06-14T05:00:57;5.65;;;2.03;;
71771;SDS011;59606;52.138;5.424;2023-06-14T05:03:25;6.55;;;2.40;;
71771;SDS011;59606;52.138;5.424;2023-06-14T05:05:54;6.18;;;2.55;;
71771;SDS011;59606;52.138;5.424;2023-06-14T05:08:21;4.80;;;2.13;;
71771;SDS011;59606;52.138;5.424;2023-06-14T05:10:52;5.37;;;1.90;;
71771;SDS011;59606;52.138;5.424;2023-06-14T05:13:18;7.22;;;2.45;;
71771;SDS011;59606;52.138;5.424;2023-06-14T05:15:45;4.72;;;2.22;;
71771;SDS011;59606;52.138;5.424;2023-06-14T05:18:11;5.38;;;2.60;;
71771;SDS011;59606;52.138;5.424;2023-06-14T05:20:40;7.03;;;2.47;;
71771;SDS011;59606;52.138;5.424;2023-06-14T05:23:08;3.90;;;2.10;;
71771;SDS011;59606;52.138;5.424;2023-06-14T05:25:45;5.40;;;2.45;;
71771;SDS011;59606;52.138;5.424;2023-06-14T05:28:12;7.50;;;2.58;;
71771;SDS011;59606;52.138;5.424;2023-06-14T05:30:39;5.40;;;2.60;;
71771;SDS011;59606;52.138;5.424;2023-06-14T05:33:08;4.80;;;2.17;;
71771;SDS011;59606;52.138;5.424;2023-06-14T05:35:35;16.13;;;2.40;;
71771;SDS011;59606;52.138;5.424;2023-06-14T05:38:02;7.82;;;2.20;;
71771;SDS011;59606;52.138;5.424;2023-06-14T05:40:28;4.80;;;2.30;;
71771;SDS011;59606;52.138;5.424;2023-06-14T05:42:55;6.03;;;2.50;;
71771;SDS011;59606;52.138;5.424;2023-06-14T05:45:21;8.88;;;2.33;;
71771;SDS011;59606;52.138;5.424;2023-06-14T05:47:48;6.40;;;2.37;;
71771;SDS011;59606;52.138;5.424;2023-06-14T05:50:15;7.10;;;2.60;;
71771;SDS011;59606;52.138;5.424;2023-06-14T05:52:41;3.72;;;2.13;;
71771;SDS011;59606;52.138;5.424;2023-06-14T05:55:08;4.38;;;2.15;;
71771;SDS011;59606;52.138;5.424;2023-06-14T05:57:35;4.40;;;2.40;;
71771;SDS011;59606;52.138;5.424;2023-06-14T06:00:01;4.27;;;2.27;;
71771;SDS011;59606;52.138;5.424;2023-06-14T06:02:36;6.05;;;2.35;;
71771;SDS011;59606;52.138;5.424;2023-06-14T06:05:03;10.23;;;2.85;;
71771;SDS011;59606;52.138;5.424;2023-06-14T06:07:29;5.70;;;2.53;;
71771;SDS011;59606;52.138;5.424;2023-06-14T06:09:56;7.18;;;2.20;;
71771;SDS011;59606;52.138;5.424;2023-06-14T06:12:22;7.27;;;2.23;;
71771;SDS011;59606;52.138;5.424;2023-06-14T06:14:49;6.53;;;2.22;;
71771;SDS011;59606;52.138;5.424;2023-06-14T06:17:15;7.80;;;2.25;;
71771;SDS011;59606;52.138;5.424;2023-06-14T06:19:42;5.13;;;2.40;;
71771;SDS011;59606;52.138;5.424;2023-06-14T06:22:08;6.18;;;2.15;;
71771;SDS011;59606;52.138;5.424;2023-06-14T06:24:35;4.40;;;2.10;;
71771;SDS011;59606;52.138;5.424;2023-06-14T06:27:01;7.60;;;1.85;;
71771;SDS011;59606;52.138;5.424;2023-06-14T06:29:28;3.63;;;2.28;;
71771;SDS011;59606;52.138;5.424;2023-06-14T06:31:55;6.50;;;2.20;;
71771;SDS011;59606;52.138;5.424;2023-06-14T06:34:22;7.45;;;3.10;;
71771;SDS011;59606;52.138;5.424;2023-06-14T06:36:49;6.83;;;2.93;;
71771;SDS011;59606;52.138;5.424;2023-06-14T06:39:15;8.18;;;4.20;;
71771;SDS011;59606;52.138;5.424;2023-06-14T06:41:42;6.90;;;3.03;;
71771;SDS011;59606;52.138;5.424;2023-06-14T06:44:08;7.20;;;2.33;;
71771;SDS011;59606;52.138;5.424;2023-06-14T06:46:38;11.20;;;2.33;;
71771;SDS011;59606;52.138;5.424;2023-06-14T06:49:07;6.93;;;2.50;;
71771;SDS011;59606;52.138;5.424;2023-06-14T06:51:34;7.80;;;2.30;;
71771;SDS011;59606;52.138;5.424;2023-06-14T06:54:02;4.25;;;2.40;;
71771;SDS011;59606;52.138;5.424;2023-06-14T06:56:29;6.82;;;2.47;;
71771;SDS011;59606;52.138;5.424;2023-06-14T06:58:55;6.43;;;2.40;;
71771;SDS011;59606;52.138;5.424;2023-06-14T07:01:22;4.30;;;2.60;;
71771;SDS011;59606;52.138;5.424;2023-06-14T07:03:50;5.55;;;2.38;;
71771;SDS011;59606;52.138;5.424;2023-06-14T07:06:17;6.00;;;2.35;;
71771;SDS011;59606;52.138;5.424;2023-06-14T07:08:46;5.80;;;2.30;;
71771;SDS011;59606;52.138;5.424;2023-06-14T07:11:14;7.25;;;2.70;;
71771;SDS011;59606;52.138;5.424;2023-06-14T07:13:41;7.80;;;2.20;;
71771;SDS011;59606;52.138;5.424;2023-06-14T07:16:07;7.40;;;2.50;;
71771;SDS011;59606;52.138;5.424;2023-06-14T07:18:34;6.90;;;1.92;;
71771;SDS011;59606;52.138;5.424;2023-06-14T07:21:01;4.63;;;2.65;;
71771;SDS011;59606;52.138;5.424;2023-06-14T07:23:27;5.28;;;2.30;;
71771;SDS011;59606;52.138;5.424;2023-06-14T07:25:54;7.73;;;2.50;;
71771;SDS011;59606;52.138;5.424;2023-06-14T07:28:21;4.90;;;2.38;;
71771;SDS011;59606;52.138;5.424;2023-06-14T07:30:47;6.57;;;2.22;;
71771;SDS011;59606;52.138;5.424;2023-06-14T07:33:14;5.63;;;2.00;;
71771;SDS011;59606;52.138;5.424;2023-06-14T07:35:41;3.78;;;2.03;;
71771;SDS011;59606;52.138;5.424;2023-06-14T07:38:08;8.30;;;2.67;;
71771;SDS011;59606;52.138;5.424;2023-06-14T07:40:34;4.18;;;2.33;;
71771;SDS011;59606;52.138;5.424;2023-06-14T07:43:01;3.30;;;2.28;;
71771;SDS011;59606;52.138;5.424;2023-06-14T07:45:28;3.97;;;1.70;;
71771;SDS011;59606;52.138;5.424;2023-06-14T07:47:55;4.93;;;1.60;;
71771;SDS011;59606;52.138;5.424;2023-06-14T07:50:21;3.80;;;1.87;;
71771;SDS011;59606;52.138;5.424;2023-06-14T07:52:48;2.85;;;1.83;;
71771;SDS011;59606;52.138;5.424;2023-06-14T07:55:15;7.07;;;2.10;;
71771;SDS011;59606;52.138;5.424;2023-06-14T07:57:42;6.07;;;1.58;;
71771;SDS011;59606;52.138;5.424;2023-06-14T08:00:09;10.65;;;1.83;;
71771;SDS011;59606;52.138;5.424;2023-06-14T08:02:38;2.80;;;1.30;;
71771;SDS011;59606;52.138;5.424;2023-06-14T08:05:04;2.85;;;1.55;;
71771;SDS011;59606;52.138;5.424;2023-06-14T08:07:31;3.10;;;1.55;;
71771;SDS011;59606;52.138;5.424;2023-06-14T08:09:58;4.30;;;1.40;;
71771;SDS011;59606;52.138;5.424;2023-06-14T08:12:24;3.35;;;1.90;;
71771;SDS011;59606;52.138;5.424;2023-06-14T08:14:51;5.30;;;1.90;;
71771;SDS011;59606;52.138;5.424;2023-06-14T08:17:37;4.57;;;1.35;;
71771;SDS011;59606;52.138;5.424;2023-06-14T08:20:04;5.50;;;1.60;;
71771;SDS011;59606;52.138;5.424;2023-06-14T08:22:32;4.22;;;1.50;;
71771;SDS011;59606;52.138;5.424;2023-06-14T08:25:02;6.10;;;2.58;;
71771;SDS011;59606;52.138;5.424;2023-06-14T08:27:30;4.70;;;1.50;;
71771;SDS011;59606;52.138;5.424;2023-06-14T08:29:56;3.40;;;1.33;;
71771;SDS011;59606;52.138;5.424;2023-06-14T08:32:23;3.13;;;1.20;;
71771;SDS011;59606;52.138;5.424;2023-06-14T08:34:51;2.90;;;1.30;;
71771;SDS011;59606;52.138;5.424;2023-06-14T08:37:30;2.67;;;1.42;;
71771;SDS011;59606;52.138;5.424;2023-06-14T08:39:57;4.20;;;1.73;;
71771;SDS011;59606;52.138;5.424;2023-06-14T08:42:24;2.67;;;1.50;;
71771;SDS011;59606;52.138;5.424;2023-06-14T08:44:57;4.50;;;1.35;;
71771;SDS011;59606;52.138;5.424;2023-06-14T08:47:24;6.57;;;1.77;;
71771;SDS011;59606;52.138;5.424;2023-06-14T08:49:53;4.45;;;1.45;;
71771;SDS011;59606;52.138;5.424;2023-06-14T08:52:23;3.20;;;1.37;;
71771;SDS011;59606;52.138;5.424;2023-06-14T08:54:56;3.95;;;1.42;;
71771;SDS011;59606;52.138;5.424;2023-06-14T08:57:23;5.13;;;1.40;;
71771;SDS011;59606;52.138;5.424;2023-06-14T08:59:51;3.80;;;1.33;;
71771;SDS011;59606;52.138;5.424;2023-06-14T09:02:19;13.55;;;3.55;;
71771;SDS011;59606;52.138;5.424;2023-06-14T09:04:48;6.20;;;1.60;;
71771;SDS011;59606;52.138;5.424;2023-06-14T09:07:18;2.75;;;1.25;;
71771;SDS011;59606;52.138;5.424;2023-06-14T09:09:44;2.30;;;1.08;;
71771;SDS011;59606;52.138;5.424;2023-06-14T09:12:31;2.22;;;1.33;;
71771;SDS011;59606;52.138;5.424;2023-06-14T09:14:58;4.80;;;1.80;;
71771;SDS011;59606;52.138;5.424;2023-06-14T09:17:24;5.20;;;1.20;;
71771;SDS011;59606;52.138;5.424;2023-06-14T09:19:51;3.22;;;1.10;;
71771;SDS011;59606;52.138;5.424;2023-06-14T09:22:18;3.10;;;1.25;;
71771;SDS011;59606;52.138;5.424;2023-06-14T09:24:44;3.42;;;1.10;;
71771;SDS011;59606;52.138;5.424;2023-06-14T09:27:14;1.90;;;1.20;;
71771;SDS011;59606;52.138;5.424;2023-06-14T09:29:41;3.50;;;1.53;;
71771;SDS011;59606;52.138;5.424;2023-06-14T09:32:08;1.52;;;0.90;;
71771;SDS011;59606;52.138;5.424;2023-06-14T09:34:35;2.00;;;1.13;;
71771;SDS011;59606;52.138;5.424;2023-06-14T09:37:02;2.53;;;1.30;;
71771;SDS011;59606;52.138;5.424;2023-06-14T09:39:29;4.88;;;1.05;;
71771;SDS011;59606;52.138;5.424;2023-06-14T09:41:56;3.73;;;1.10;;
71771;SDS011;59606;52.138;5.424;2023-06-14T09:44:22;2.83;;;1.15;;
71771;SDS011;59606;52.138;5.424;2023-06-14T09:46:55;2.75;;;1.50;;
71771;SDS011;59606;52.138;5.424;2023-06-14T09:49:22;5.72;;;1.08;;
71771;SDS011;59606;52.138;5.424;2023-06-14T09:51:50;3.42;;;1.20;;
71771;SDS011;59606;52.138;5.424;2023-06-14T09:54:20;4.20;;;1.10;;
71771;SDS011;59606;52.138;5.424;2023-06-14T09:56:49;4.47;;;1.38;;
71771;SDS011;59606;52.138;5.424;2023-06-14T09:59:19;3.50;;;1.20;;
71771;SDS011;59606;52.138;5.424;2023-06-14T10:01:47;4.13;;;1.60;;
71771;SDS011;59606;52.138;5.424;2023-06-14T10:04:16;4.97;;;1.20;;
71771;SDS011;59606;52.138;5.424;2023-06-14T10:06:48;2.53;;;0.90;;
71771;SDS011;59606;52.138;5.424;2023-06-14T10:09:17;2.42;;;1.10;;
71771;SDS011;59606;52.138;5.424;2023-06-14T10:11:44;2.17;;;1.00;;
71771;SDS011;59606;52.138;5.424;2023-06-14T10:14:12;6.25;;;1.40;;
71771;SDS011;59606;52.138;5.424;2023-06-14T10:16:45;1.52;;;0.80;;
71771;SDS011;59606;52.138;5.424;2023-06-14T10:19:20;2.23;;;1.10;;
71771;SDS011;59606;52.138;5.424;2023-06-14T10:21:59;4.70;;;1.02;;
71771;SDS011;59606;52.138;5.424;2023-06-14T10:24:33;3.38;;;1.30;;
71771;SDS011;59606;52.138;5.424;2023-06-14T10:27:07;2.65;;;1.40;;
71771;SDS011;59606;52.138;5.424;2023-06-14T10:32:29;2.77;;;1.20;;
71771;SDS011;59606;52.138;5.424;2023-06-14T10:34:56;2.53;;;1.42;;
71771;SDS011;59606;52.138;5.424;2023-06-14T10:37:23;5.22;;;1.42;;
71771;SDS011;59606;52.138;5.424;2023-06-14T10:39:51;6.47;;;1.30;;
71771;SDS011;59606;52.138;5.424;2023-06-14T10:42:17;3.83;;;1.40;;
71771;SDS011;59606;52.138;5.424;2023-06-14T10:44:46;4.03;;;1.40;;
71771;SDS011;59606;52.138;5.424;2023-06-14T10:47:29;3.38;;;1.30;;
71771;SDS011;59606;52.138;5.424;2023-06-14T10:50:05;2.38;;;1.40;;
71771;SDS011;59606;52.138;5.424;2023-06-14T10:52:42;1.90;;;1.48;;
71771;SDS011;59606;52.138;5.424;2023-06-14T10:55:15;3.20;;;1.13;;
71771;SDS011;59606;52.138;5.424;2023-06-14T10:57:49;2.13;;;1.03;;
71771;SDS011;59606;52.138;5.424;2023-06-14T11:00:28;4.68;;;1.20;;
71771;SDS011;59606;52.138;5.424;2023-06-14T11:05:55;1.83;;;1.00;;
71771;SDS011;59606;52.138;5.424;2023-06-14T11:11:23;2.43;;;1.00;;
71771;SDS011;59606;52.138;5.424;2023-06-14T11:13:55;2.65;;;1.17;;
71771;SDS011;59606;52.138;5.424;2023-06-14T11:16:22;1.88;;;1.10;;
71771;SDS011;59606;52.138;5.424;2023-06-14T11:18:52;3.10;;;1.15;;
71771;SDS011;59606;52.138;5.424;2023-06-14T11:21:19;2.42;;;1.40;;
71771;SDS011;59606;52.138;5.424;2023-06-14T11:23:52;3.83;;;0.90;;
71771;SDS011;59606;52.138;5.424;2023-06-14T11:26:27;1.90;;;0.90;;
71771;SDS011;59606;52.138;5.424;2023-06-14T11:28:59;4.15;;;1.40;;
71771;SDS011;59606;52.138;5.424;2023-06-14T11:31:27;3.38;;;1.25;;
71771;SDS011;59606;52.138;5.424;2023-06-14T11:33:55;6.22;;;1.35;;
71771;SDS011;59606;52.138;5.424;2023-06-14T11:36:26;3.90;;;1.40;;
71771;SDS011;59606;52.138;5.424;2023-06-14T11:41:31;2.30;;;1.27;;
71771;SDS011;59606;52.138;5.424;2023-06-14T11:44:09;5.50;;;1.45;;
71771;SDS011;59606;52.138;5.424;2023-06-14T11:46:36;1.70;;;1.15;;
71771;SDS011;59606;52.138;5.424;2023-06-14T11:49:03;2.73;;;1.10;;
71771;SDS011;59606;52.138;5.424;2023-06-14T11:51:34;4.30;;;1.20;;
71771;SDS011;59606;52.138;5.424;2023-06-14T11:54:02;4.55;;;1.90;;
71771;SDS011;59606;52.138;5.424;2023-06-14T11:56:30;2.30;;;1.10;;
71771;SDS011;59606;52.138;5.424;2023-06-14T11:58:58;2.20;;;1.17;;
71771;SDS011;59606;52.138;5.424;2023-06-14T12:01:26;3.03;;;1.07;;
71771;SDS011;59606;52.138;5.424;2023-06-14T12:03:53;2.10;;;1.13;;
71771;SDS011;59606;52.138;5.424;2023-06-14T12:06:27;3.35;;;1.00;;
71771;SDS011;59606;52.138;5.424;2023-06-14T12:08:58;3.92;;;1.30;;
71771;SDS011;59606;52.138;5.424;2023-06-14T12:11:28;2.60;;;1.20;;
71771;SDS011;59606;52.138;5.424;2023-06-14T12:13:59;5.10;;;1.40;;
71771;SDS011;59606;52.138;5.424;2023-06-14T12:16:30;2.30;;;1.70;;
71771;SDS011;59606;52.138;5.424;2023-06-14T12:19:14;2.45;;;1.08;;
71771;SDS011;59606;52.138;5.424;2023-06-14T12:21:45;3.45;;;0.95;;
71771;SDS011;59606;52.138;5.424;2023-06-14T12:24:17;6.38;;;1.52;;
71771;SDS011;59606;52.138;5.424;2023-06-14T12:26:44;1.77;;;1.00;;
71771;SDS011;59606;52.138;5.424;2023-06-14T12:29:12;4.30;;;1.30;;
71771;SDS011;59606;52.138;5.424;2023-06-14T12:31:39;3.08;;;1.20;;
71771;SDS011;59606;52.138;5.424;2023-06-14T12:34:07;2.33;;;1.20;;
71771;SDS011;59606;52.138;5.424;2023-06-14T12:36:33;4.97;;;1.50;;
71771;SDS011;59606;52.138;5.424;2023-06-14T12:39:01;2.80;;;1.40;;
71771;SDS011;59606;52.138;5.424;2023-06-14T12:41:28;2.55;;;1.27;;
71771;SDS011;59606;52.138;5.424;2023-06-14T12:43:55;5.53;;;1.50;;
71771;SDS011;59606;52.138;5.424;2023-06-14T12:46:24;2.30;;;1.38;;
71771;SDS011;59606;52.138;5.424;2023-06-14T12:48:50;4.15;;;1.83;;
71771;SDS011;59606;52.138;5.424;2023-06-14T12:51:17;4.53;;;2.23;;
71771;SDS011;59606;52.138;5.424;2023-06-14T12:53:43;2.10;;;1.20;;
71771;SDS011;59606;52.138;5.424;2023-06-14T12:56:10;5.80;;;1.30;;
71771;SDS011;59606;52.138;5.424;2023-06-14T12:58:37;1.67;;;1.05;;
71771;SDS011;59606;52.138;5.424;2023-06-14T13:01:03;4.97;;;1.50;;
71771;SDS011;59606;52.138;5.424;2023-06-14T13:03:30;2.10;;;0.87;;
71771;SDS011;59606;52.138;5.424;2023-06-14T13:05:57;2.25;;;1.10;;
71771;SDS011;59606;52.138;5.424;2023-06-14T13:08:24;3.80;;;1.00;;
71771;SDS011;59606;52.138;5.424;2023-06-14T13:10:51;2.13;;;1.10;;
71771;SDS011;59606;52.138;5.424;2023-06-14T13:13:17;4.85;;;1.45;;
71771;SDS011;59606;52.138;5.424;2023-06-14T13:15:44;3.30;;;0.97;;
71771;SDS011;59606;52.138;5.424;2023-06-14T13:18:12;2.03;;;0.98;;
71771;SDS011;59606;52.138;5.424;2023-06-14T13:20:39;4.20;;;1.70;;
71771;SDS011;59606;52.138;5.424;2023-06-14T13:23:06;2.75;;;1.13;;
71771;SDS011;59606;52.138;5.424;2023-06-14T13:25:34;2.97;;;0.90;;
71771;SDS011;59606;52.138;5.424;2023-06-14T13:28:01;5.83;;;1.50;;
71771;SDS011;59606;52.138;5.424;2023-06-14T13:30:28;8.73;;;1.55;;
71771;SDS011;59606;52.138;5.424;2023-06-14T13:32:56;1.45;;;1.10;;
71771;SDS011;59606;52.138;5.424;2023-06-14T13:35:24;2.80;;;1.15;;
71771;SDS011;59606;52.138;5.424;2023-06-14T13:37:51;5.57;;;1.73;;
71771;SDS011;59606;52.138;5.424;2023-06-14T13:40:18;3.37;;;1.20;;
71771;SDS011;59606;52.138;5.424;2023-06-14T13:42:46;3.28;;;1.45;;
71771;SDS011;59606;52.138;5.424;2023-06-14T13:45:13;8.60;;;1.50;;
71771;SDS011;59606;52.138;5.424;2023-06-14T13:47:40;3.20;;;0.98;;
71771;SDS011;59606;52.138;5.424;2023-06-14T13:50:06;3.13;;;1.35;;
71771;SDS011;59606;52.138;5.424;2023-06-14T13:52:34;6.83;;;1.10;;
71771;SDS011;59606;52.138;5.424;2023-06-14T13:55:01;7.03;;;1.35;;
71771;SDS011;59606;52.138;5.424;2023-06-14T13:57:28;2.63;;;1.20;;
71771;SDS011;59606;52.138;5.424;2023-06-14T13:59:55;2.97;;;1.23;;
71771;SDS011;59606;52.138;5.424;2023-06-14T14:02:28;3.38;;;1.50;;
71771;SDS011;59606;52.138;5.424;2023-06-14T14:04:55;3.53;;;1.27;;
71771;SDS011;59606;52.138;5.424;2023-06-14T14:07:23;3.67;;;1.20;;
71771;SDS011;59606;52.138;5.424;2023-06-14T14:09:50;2.28;;;1.80;;
71771;SDS011;59606;52.138;5.424;2023-06-14T14:12:17;2.03;;;1.17;;
71771;SDS011;59606;52.138;5.424;2023-06-14T14:14:44;3.50;;;1.23;;
71771;SDS011;59606;52.138;5.424;2023-06-14T14:17:11;4.20;;;1.20;;
71771;SDS011;59606;52.138;5.424;2023-06-14T14:19:38;2.25;;;1.17;;
71771;SDS011;59606;52.138;5.424;2023-06-14T14:22:05;4.25;;;1.80;;
71771;SDS011;59606;52.138;5.424;2023-06-14T14:24:32;2.53;;;1.20;;
71771;SDS011;59606;52.138;5.424;2023-06-14T14:26:58;3.60;;;1.63;;
71771;SDS011;59606;52.138;5.424;2023-06-14T14:29:26;4.70;;;1.27;;
71771;SDS011;59606;52.138;5.424;2023-06-14T14:31:55;4.22;;;1.02;;
71771;SDS011;59606;52.138;5.424;2023-06-14T14:34:24;3.75;;;1.08;;
71771;SDS011;59606;52.138;5.424;2023-06-14T14:36:51;2.00;;;1.05;;
71771;SDS011;59606;52.138;5.424;2023-06-14T14:39:17;2.75;;;1.25;;
71771;SDS011;59606;52.138;5.424;2023-06-14T14:41:44;2.90;;;0.97;;
71771;SDS011;59606;52.138;5.424;2023-06-14T14:44:11;2.58;;;1.27;;
71771;SDS011;59606;52.138;5.424;2023-06-14T14:46:38;4.25;;;1.20;;
71771;SDS011;59606;52.138;5.424;2023-06-14T14:49:05;3.55;;;0.98;;
71771;SDS011;59606;52.138;5.424;2023-06-14T14:51:32;2.47;;;1.08;;
71771;SDS011;59606;52.138;5.424;2023-06-14T14:53:58;4.13;;;1.00;;
71771;SDS011;59606;52.138;5.424;2023-06-14T14:56:25;9.02;;;1.13;;
71771;SDS011;59606;52.138;5.424;2023-06-14T14:58:52;4.35;;;0.90;;
71771;SDS011;59606;52.138;5.424;2023-06-14T15:01:18;3.55;;;1.08;;
71771;SDS011;59606;52.138;5.424;2023-06-14T15:03:45;2.70;;;0.93;;
71771;SDS011;59606;52.138;5.424;2023-06-14T15:06:14;2.43;;;1.03;;